createdAt,value
2023-02-05T00:00:38.147Z,-0.34
2023-02-05T00:01:38.467Z,-0.33
2023-02-05T00:02:38.792Z,-0.33
2023-02-05T00:03:39.188Z,-0.31
2023-02-05T00:04:39.392Z,-0.31
2023-02-05T00:05:39.723Z,-0.31
2023-02-05T00:06:40.387Z,-0.29
2023-02-05T00:07:40.395Z,-0.33
2023-02-05T00:08:40.727Z,-0.33
2023-02-05T00:09:41.048Z,-0.33
2023-02-05T00:10:41.377Z,-0.33
2023-02-05T00:11:41.727Z,-0.33
2023-02-05T00:12:42.047Z,-0.33
2023-02-05T00:13:42.383Z,-0.29
2023-02-05T00:14:42.708Z,-0.29
2023-02-05T00:15:43.059Z,-0.28
2023-02-05T00:16:43.411Z,-0.28
2023-02-05T00:17:43.615Z,-0.31
2023-02-05T00:18:43.949Z,-0.31
2023-02-05T00:19:44.288Z,-0.34
2023-02-05T00:20:44.614Z,-0.33
2023-02-05T00:21:44.944Z,-0.31
2023-02-05T00:22:45.260Z,-0.29
2023-02-05T00:23:45.599Z,-0.28
2023-02-05T00:24:45.916Z,-0.29
2023-02-05T00:25:46.249Z,-0.29
2023-02-05T00:26:46.577Z,-0.28
2023-02-05T00:27:46.927Z,-0.26
2023-02-05T00:28:47.238Z,-0.26
2023-02-05T00:29:47.568Z,-0.25
2023-02-05T00:30:47.947Z,-0.22
2023-02-05T00:31:48.189Z,-0.21
2023-02-05T00:32:48.427Z,-0.19
2023-02-05T00:33:48.758Z,-0.16
2023-02-05T00:34:49.079Z,-0.15
2023-02-05T00:35:49.405Z,-0.18
2023-02-05T00:36:49.726Z,-0.21
2023-02-05T00:37:50.043Z,-0.21
2023-02-05T00:38:50.378Z,-0.18
2023-02-05T00:39:50.698Z,-0.16
2023-02-05T00:40:51.007Z,-0.18
2023-02-05T00:41:51.348Z,-0.21
2023-02-05T00:42:51.652Z,-0.25
2023-02-05T00:43:51.994Z,-0.26
2023-02-05T00:44:52.299Z,-0.28
2023-02-05T00:45:52.653Z,-0.29
2023-02-05T00:46:52.969Z,-0.29
2023-02-05T00:47:53.298Z,-0.28
2023-02-05T00:48:53.642Z,-0.25
2023-02-05T00:49:53.972Z,-0.25
2023-02-05T00:50:54.289Z,-0.23
2023-02-05T00:51:54.621Z,-0.25
2023-02-05T00:52:54.926Z,-0.26
2023-02-05T00:53:55.268Z,-0.28
2023-02-05T00:54:55.597Z,-0.31
2023-02-05T00:55:55.908Z,-0.34
2023-02-05T00:56:56.248Z,-0.39
2023-02-05T00:57:56.599Z,-0.39
2023-02-05T00:58:56.932Z,-0.40
2023-02-05T00:59:57.261Z,-0.40
2023-02-05T01:00:57.569Z,-0.39
2023-02-05T01:01:57.899Z,-0.39
2023-02-05T01:02:58.219Z,-0.39
2023-02-05T01:03:58.558Z,-0.39
2023-02-05T01:04:58.878Z,-0.37
2023-02-05T01:05:59.202Z,-0.37
2023-02-05T01:06:59.517Z,-0.37
2023-02-05T01:07:59.847Z,-0.36
2023-02-05T01:09:00.171Z,-0.39
2023-02-05T01:10:00.511Z,-0.42
2023-02-05T01:11:00.828Z,-0.44
2023-02-05T01:12:01.156Z,-0.46
2023-02-05T01:13:01.485Z,-0.47
2023-02-05T01:14:01.825Z,-0.49
2023-02-05T01:15:02.136Z,-0.49
2023-02-05T01:16:02.480Z,-0.49
2023-02-05T01:17:02.694Z,-0.47
2023-02-05T01:18:03.017Z,-0.49
2023-02-05T01:19:03.357Z,-0.47
2023-02-05T01:20:03.685Z,-0.47
2023-02-05T01:21:04.003Z,-0.52
2023-02-05T01:22:04.316Z,-0.54
2023-02-05T01:23:04.652Z,-0.57
2023-02-05T01:24:04.998Z,-0.54
2023-02-05T01:25:05.318Z,-0.57
2023-02-05T01:26:05.662Z,-0.60
2023-02-05T01:27:05.977Z,-0.64
2023-02-05T01:28:06.319Z,-0.69
2023-02-05T01:29:06.638Z,-0.70
2023-02-05T01:30:06.972Z,-0.73
2023-02-05T01:31:07.399Z,-0.76
2023-02-05T01:32:07.612Z,-0.78
2023-02-05T01:33:07.939Z,-0.79
2023-02-05T01:34:08.293Z,-0.78
2023-02-05T01:35:08.519Z,-0.80
2023-02-05T01:36:08.845Z,-0.80
2023-02-05T01:37:09.171Z,-0.79
2023-02-05T01:38:09.488Z,-0.82
2023-02-05T01:39:09.817Z,-0.82
2023-02-05T01:40:10.144Z,-0.83
2023-02-05T01:41:10.456Z,-0.85
2023-02-05T01:42:10.787Z,-0.85
2023-02-05T01:43:11.112Z,-0.86
2023-02-05T01:44:11.456Z,-0.89
2023-02-05T01:45:11.764Z,-0.91
2023-02-05T01:46:12.094Z,-0.92
2023-02-05T01:47:12.412Z,-0.95
2023-02-05T01:48:12.729Z,-0.97
2023-02-05T01:49:13.076Z,-0.95
2023-02-05T01:50:13.393Z,-0.95
2023-02-05T01:51:13.718Z,-0.95
2023-02-05T01:52:14.035Z,-0.97
2023-02-05T01:53:14.354Z,-0.95
2023-02-05T01:54:14.704Z,-0.98
2023-02-05T01:55:14.905Z,-0.98
2023-02-05T01:56:15.233Z,-1.01
2023-02-05T01:57:15.545Z,-1.02
2023-02-05T01:58:15.873Z,-1.04
2023-02-05T01:59:16.207Z,-1.05
2023-02-05T02:00:16.534Z,-1.02
2023-02-05T02:01:16.874Z,-1.04
2023-02-05T02:02:17.203Z,-1.02
2023-02-05T02:03:17.532Z,-1.04
2023-02-05T02:04:17.875Z,-1.07
2023-02-05T02:05:18.258Z,-1.09
2023-02-05T02:06:18.513Z,-1.09
2023-02-05T02:07:20.482Z,-1.12
2023-02-05T02:08:19.161Z,-1.13
2023-02-05T02:09:19.494Z,-1.15
2023-02-05T02:10:19.823Z,-1.16
2023-02-05T02:11:20.134Z,-1.17
2023-02-05T02:12:20.475Z,-1.19
2023-02-05T02:13:20.795Z,-1.16
2023-02-05T02:14:21.125Z,-1.16
2023-02-05T02:15:21.444Z,-1.17
2023-02-05T02:16:21.801Z,-1.19
2023-02-05T02:17:22.104Z,-1.17
2023-02-05T02:18:22.428Z,-1.17
2023-02-05T02:19:22.758Z,-1.16
2023-02-05T02:20:23.084Z,-1.20
2023-02-05T02:21:23.421Z,-1.22
2023-02-05T02:22:23.748Z,-1.22
2023-02-05T02:23:24.066Z,-1.25
2023-02-05T02:24:24.415Z,-1.30
2023-02-05T02:25:24.743Z,-1.30
2023-02-05T02:26:25.070Z,-1.33
2023-02-05T02:27:25.385Z,-1.37
2023-02-05T02:28:25.709Z,-1.37
2023-02-05T02:29:26.047Z,-1.38
2023-02-05T02:30:26.431Z,-1.38
2023-02-05T02:31:26.638Z,-1.40
2023-02-05T02:32:26.942Z,-1.41
2023-02-05T02:33:27.269Z,-1.46
2023-02-05T02:34:27.595Z,-1.46
2023-02-05T02:35:27.926Z,-1.48
2023-02-05T02:36:28.260Z,-1.48
2023-02-05T02:37:28.586Z,-1.54
2023-02-05T02:38:28.905Z,-1.56
2023-02-05T02:39:29.242Z,-1.56
2023-02-05T02:40:29.594Z,-1.59
2023-02-05T02:41:29.933Z,-1.59
2023-02-05T02:42:30.246Z,-1.61
2023-02-05T02:43:30.578Z,-1.62
2023-02-05T02:44:30.917Z,-1.59
2023-02-05T02:45:31.393Z,-1.56
2023-02-05T02:46:31.512Z,-1.56
2023-02-05T02:47:31.738Z,-1.54
2023-02-05T02:48:32.051Z,-1.54
2023-02-05T02:49:32.391Z,-1.52
2023-02-05T02:50:32.726Z,-1.52
2023-02-05T02:51:33.040Z,-1.54
2023-02-05T02:52:33.356Z,-1.52
2023-02-05T02:53:33.678Z,-1.55
2023-02-05T02:54:34.004Z,-1.54
2023-02-05T02:55:34.628Z,-1.56
2023-02-05T02:56:34.593Z,-1.55
2023-02-05T02:57:34.911Z,-1.56
2023-02-05T02:58:35.232Z,-1.58
2023-02-05T02:59:35.579Z,-1.56
2023-02-05T03:00:35.841Z,-1.56
2023-02-05T03:01:36.032Z,-1.54
2023-02-05T03:02:36.343Z,-1.56
2023-02-05T03:03:36.702Z,-1.58
2023-02-05T03:04:37.008Z,-1.62
2023-02-05T03:05:37.335Z,-1.64
2023-02-05T03:06:37.605Z,-1.64
2023-02-05T03:07:37.934Z,-1.66
2023-02-05T03:08:38.255Z,-1.66
2023-02-05T03:09:38.593Z,-1.66
2023-02-05T03:10:38.923Z,-1.67
2023-02-05T03:11:39.245Z,-1.69
2023-02-05T03:12:39.561Z,-1.69
2023-02-05T03:13:40.008Z,-1.67
2023-02-05T03:14:40.206Z,-1.69
2023-02-05T03:15:40.548Z,-1.72
2023-02-05T03:16:40.873Z,-1.70
2023-02-05T03:17:41.189Z,-1.73
2023-02-05T03:18:41.511Z,-1.74
2023-02-05T03:19:41.848Z,-1.74
2023-02-05T03:20:42.180Z,-1.73
2023-02-05T03:21:42.498Z,-1.73
2023-02-05T03:22:42.827Z,-1.70
2023-02-05T03:23:43.151Z,-1.70
2023-02-05T03:24:43.489Z,-1.73
2023-02-05T03:25:43.807Z,-1.73
2023-02-05T03:26:44.133Z,-1.74
2023-02-05T03:27:44.475Z,-1.73
2023-02-05T03:28:44.765Z,-1.76
2023-02-05T03:29:45.110Z,-1.77
2023-02-05T03:30:45.471Z,-1.80
2023-02-05T03:31:45.712Z,-1.82
2023-02-05T03:32:45.913Z,-1.85
2023-02-05T03:33:46.228Z,-1.90
2023-02-05T03:34:46.569Z,-1.94
2023-02-05T03:35:46.886Z,-1.97
2023-02-05T03:36:47.236Z,-1.98
2023-02-05T03:37:47.561Z,-2.02
2023-02-05T03:38:47.877Z,-2.02
2023-02-05T03:39:48.211Z,-2.02
2023-02-05T03:40:48.535Z,-2.02
2023-02-05T03:41:48.858Z,-1.98
2023-02-05T03:42:49.207Z,-1.95
2023-02-05T03:43:49.539Z,-1.94
2023-02-05T03:44:49.868Z,-1.92
2023-02-05T03:45:50.219Z,-1.95
2023-02-05T03:46:50.516Z,-1.95
2023-02-05T03:47:50.840Z,-1.97
2023-02-05T03:48:51.170Z,-1.95
2023-02-05T03:49:51.512Z,-1.92
2023-02-05T03:50:51.831Z,-1.94
2023-02-05T03:51:52.162Z,-1.92
2023-02-05T03:52:52.490Z,-1.97
2023-02-05T03:53:52.808Z,-2.00
2023-02-05T03:54:53.133Z,-2.02
2023-02-05T03:55:53.474Z,-2.02
2023-02-05T03:56:53.794Z,-2.03
2023-02-05T03:57:54.129Z,-2.05
2023-02-05T03:58:54.435Z,-2.06
2023-02-05T03:59:54.767Z,-2.06
2023-02-05T04:00:55.150Z,-2.06
2023-02-05T04:01:55.388Z,-2.08
2023-02-05T04:02:55.698Z,-2.06
2023-02-05T04:03:56.021Z,-2.10
2023-02-05T04:04:56.366Z,-2.13
2023-02-05T04:05:56.687Z,-2.13
2023-02-05T04:06:56.993Z,-2.15
2023-02-05T04:07:57.312Z,-2.16
2023-02-05T04:08:57.631Z,-2.13
2023-02-05T04:09:57.980Z,-2.12
2023-02-05T04:10:58.182Z,-2.10
2023-02-05T04:11:58.502Z,-2.09
2023-02-05T04:12:58.819Z,-2.08
2023-02-05T04:13:59.146Z,-2.09
2023-02-05T04:14:59.480Z,-2.03
2023-02-05T04:15:59.815Z,-2.03
2023-02-05T04:17:00.124Z,-2.03
2023-02-05T04:18:00.451Z,-2.03
2023-02-05T04:19:00.791Z,-2.05
2023-02-05T04:20:01.153Z,-2.09
2023-02-05T04:21:01.453Z,-2.10
2023-02-05T04:22:01.780Z,-2.13
2023-02-05T04:23:02.091Z,-2.13
2023-02-05T04:24:02.447Z,-2.15
2023-02-05T04:25:02.758Z,-2.16
2023-02-05T04:26:03.088Z,-2.15
2023-02-05T04:27:03.402Z,-2.16
2023-02-05T04:28:03.733Z,-2.15
2023-02-05T04:29:04.060Z,-2.10
2023-02-05T04:30:04.402Z,-2.10
2023-02-05T04:31:04.740Z,-2.12
2023-02-05T04:32:04.964Z,-2.10
2023-02-05T04:33:05.279Z,-2.09
2023-02-05T04:34:05.585Z,-2.05
2023-02-05T04:35:05.926Z,-2.02
2023-02-05T04:36:06.268Z,-1.97
2023-02-05T04:37:06.589Z,-1.95
2023-02-05T04:38:06.906Z,-1.97
2023-02-05T04:39:07.217Z,-1.94
2023-02-05T04:40:07.547Z,-1.91
2023-02-05T04:41:07.875Z,-1.90
2023-02-05T04:42:08.185Z,-1.85
2023-02-05T04:43:08.506Z,-1.85
2023-02-05T04:44:08.816Z,-1.85
2023-02-05T04:45:09.158Z,-1.85
2023-02-05T04:46:09.516Z,-1.84
2023-02-05T04:47:09.707Z,-1.84
2023-02-05T04:48:10.025Z,-1.84
2023-02-05T04:49:10.346Z,-1.84
2023-02-05T04:50:10.689Z,-1.84
2023-02-05T04:51:10.999Z,-1.84
2023-02-05T04:52:11.329Z,-1.82
2023-02-05T04:53:11.663Z,-1.79
2023-02-05T04:54:11.994Z,-1.77
2023-02-05T04:55:12.320Z,-1.79
2023-02-05T04:56:12.658Z,-1.79
2023-02-05T04:57:12.992Z,-1.82
2023-02-05T04:58:13.320Z,-1.84
2023-02-05T04:59:13.639Z,-1.87
2023-02-05T05:00:13.979Z,-1.84
2023-02-05T05:01:22.027Z,-1.87
2023-02-05T05:02:14.734Z,-1.88
2023-02-05T05:03:15.027Z,-1.85
2023-02-05T05:04:15.242Z,-1.90
2023-02-05T05:05:15.480Z,-1.91
2023-02-05T05:06:15.711Z,-1.91
2023-02-05T05:07:16.040Z,-1.90
2023-02-05T05:08:16.382Z,-1.87
2023-02-05T05:09:16.751Z,-1.88
2023-02-05T05:10:17.004Z,-1.91
2023-02-05T05:11:17.193Z,-1.91
2023-02-05T05:12:17.540Z,-1.91
2023-02-05T05:13:17.895Z,-1.90
2023-02-05T05:14:18.115Z,-1.90
2023-02-05T05:15:18.351Z,-1.87
2023-02-05T05:16:18.650Z,-1.85
2023-02-05T05:17:18.881Z,-1.80
2023-02-05T05:18:19.130Z,-1.79
2023-02-05T05:19:19.590Z,-1.80
2023-02-05T05:20:19.662Z,-1.85
2023-02-05T05:21:19.892Z,-1.85
2023-02-05T05:22:20.149Z,-1.90
2023-02-05T05:23:20.351Z,-1.94
2023-02-05T05:24:20.701Z,-1.97
2023-02-05T05:25:21.061Z,-2.00
2023-02-05T05:26:21.300Z,-2.02
2023-02-05T05:27:21.555Z,-2.02
2023-02-05T05:28:21.805Z,-2.00
2023-02-05T05:29:22.182Z,-1.98
2023-02-05T05:30:22.904Z,-1.98
2023-02-05T05:31:22.582Z,-1.97
2023-02-05T05:32:22.816Z,-1.97
2023-02-05T05:33:23.013Z,-1.97
2023-02-05T05:34:23.361Z,-1.98
2023-02-05T05:35:23.673Z,-1.95
2023-02-05T05:36:23.905Z,-1.97
2023-02-05T05:37:24.202Z,-1.94
2023-02-05T05:38:24.382Z,-1.92
2023-02-05T05:39:24.695Z,-1.92
2023-02-05T05:40:25.126Z,-1.91
2023-02-05T05:41:25.381Z,-1.90
2023-02-05T05:42:25.712Z,-1.88
2023-02-05T05:43:25.943Z,-1.87
2023-02-05T05:44:26.296Z,-1.87
2023-02-05T05:45:26.655Z,-1.87
2023-02-05T05:46:26.959Z,-1.85
2023-02-05T05:47:27.186Z,-1.84
2023-02-05T05:48:27.414Z,-1.80
2023-02-05T05:49:27.624Z,-1.76
2023-02-05T05:50:27.994Z,-1.74
2023-02-05T05:51:28.197Z,-1.74
2023-02-05T05:52:30.361Z,-1.73
2023-02-05T05:53:28.810Z,-1.74
2023-02-05T05:54:29.032Z,-1.73
2023-02-05T05:55:29.374Z,-1.70
2023-02-05T05:56:29.617Z,-1.70
2023-02-05T05:57:29.837Z,-1.69
2023-02-05T05:58:30.092Z,-1.69
2023-02-05T05:59:30.453Z,-1.69
2023-02-05T06:00:30.683Z,-1.69
2023-02-05T06:01:30.900Z,-1.66
2023-02-05T06:02:31.247Z,-1.64
2023-02-05T06:03:31.579Z,-1.62
2023-02-05T06:04:31.841Z,-1.61
2023-02-05T06:05:32.318Z,-1.59
2023-02-05T06:06:32.410Z,-1.59
2023-02-05T06:07:32.755Z,-1.58
2023-02-05T06:08:32.988Z,-1.59
2023-02-05T06:09:33.212Z,-1.58
2023-02-05T06:10:33.498Z,-1.55
2023-02-05T06:11:33.702Z,-1.56
2023-02-05T06:12:33.940Z,-1.56
2023-02-05T06:13:34.149Z,-1.58
2023-02-05T06:14:34.482Z,-1.55
2023-02-05T06:15:35.257Z,-1.59
2023-02-05T06:16:35.071Z,-1.61
2023-02-05T06:17:35.409Z,-1.62
2023-02-05T06:18:35.758Z,-1.62
2023-02-05T06:19:36.113Z,-1.59
2023-02-05T06:20:36.360Z,-1.67
2023-02-05T06:21:36.579Z,-1.67
2023-02-05T06:22:36.967Z,-1.70
2023-02-05T06:23:37.202Z,-1.73
2023-02-05T06:24:37.413Z,-1.73
2023-02-05T06:25:37.861Z,-1.72
2023-02-05T06:26:38.099Z,-1.72
2023-02-05T06:27:38.383Z,-1.70
2023-02-05T06:28:38.579Z,-1.69
2023-02-05T06:29:38.942Z,-1.67
2023-02-05T06:30:39.225Z,-1.61
2023-02-05T06:31:39.536Z,-1.61
2023-02-05T06:32:39.784Z,-1.58
2023-02-05T06:33:40.004Z,-1.59
2023-02-05T06:34:40.222Z,-1.58
2023-02-05T06:35:40.602Z,-1.58
2023-02-05T06:36:40.843Z,-1.55
2023-02-05T06:37:48.254Z,-1.55
2023-02-05T06:38:42.506Z,-1.54
2023-02-05T06:39:41.561Z,-1.52
2023-02-05T06:40:41.852Z,-1.51
2023-02-05T06:41:42.109Z,-1.46
2023-02-05T06:42:42.336Z,-1.45
2023-02-05T06:43:42.573Z,-1.45
2023-02-05T06:44:42.823Z,-1.45
2023-02-05T06:45:43.088Z,-1.45
2023-02-05T06:46:43.382Z,-1.46
2023-02-05T06:47:43.621Z,-1.46
2023-02-05T06:48:43.845Z,-1.45
2023-02-05T06:49:44.086Z,-1.46
2023-02-05T06:50:44.380Z,-1.45
2023-02-05T06:51:44.606Z,-1.45
2023-02-05T06:52:44.911Z,-1.41
2023-02-05T06:53:45.154Z,-1.41
2023-02-05T06:54:45.382Z,-1.37
2023-02-05T06:55:45.661Z,-1.33
2023-02-05T06:56:45.904Z,-1.34
2023-02-05T06:57:46.150Z,-1.33
2023-02-05T06:58:46.380Z,-1.33
2023-02-05T06:59:46.755Z,-1.31
2023-02-05T07:00:47.047Z,-1.31
2023-02-05T07:01:47.340Z,-1.31
2023-02-05T07:02:47.677Z,-1.27
2023-02-05T07:03:47.907Z,-1.27
2023-02-05T07:04:48.141Z,-1.23
2023-02-05T07:05:48.418Z,-1.23
2023-02-05T07:06:48.682Z,-1.22
2023-02-05T07:07:49.933Z,-1.19
2023-02-05T07:08:49.169Z,-1.19
2023-02-05T07:09:49.421Z,-1.23
2023-02-05T07:10:49.698Z,-1.22
2023-02-05T07:11:49.956Z,-1.25
2023-02-05T07:12:50.174Z,-1.27
2023-02-05T07:13:50.428Z,-1.27
2023-02-05T07:14:50.679Z,-1.27
2023-02-05T07:15:51.058Z,-1.27
2023-02-05T07:16:51.131Z,-1.27
2023-02-05T07:17:51.392Z,-1.25
2023-02-05T07:18:51.642Z,-1.25
2023-02-05T07:19:51.912Z,-1.22
2023-02-05T07:20:52.212Z,-1.19
2023-02-05T07:21:52.538Z,-1.17
2023-02-05T07:22:52.809Z,-1.15
2023-02-05T07:23:53.042Z,-1.17
2023-02-05T07:24:53.283Z,-1.17
2023-02-05T07:25:53.545Z,-1.19
2023-02-05T07:26:54.080Z,-1.19
2023-02-05T07:27:54.109Z,-1.16
2023-02-05T07:28:54.337Z,-1.16
2023-02-05T07:29:54.582Z,-1.13
2023-02-05T07:30:54.860Z,-1.12
2023-02-05T07:31:55.211Z,-1.09
2023-02-05T07:32:55.334Z,-1.04
2023-02-05T07:33:55.599Z,-1.02
2023-02-05T07:34:55.853Z,-0.99
2023-02-05T07:35:56.115Z,-0.98
2023-02-05T07:36:56.363Z,-0.97
2023-02-05T07:37:56.621Z,-0.97
2023-02-05T07:38:56.890Z,-0.95
2023-02-05T07:39:57.155Z,-0.97
2023-02-05T07:40:57.410Z,-0.94
2023-02-05T07:41:57.659Z,-0.94
2023-02-05T07:42:57.911Z,-0.91
2023-02-05T07:43:58.160Z,-0.85
2023-02-05T07:44:58.408Z,-0.80
2023-02-05T07:45:58.685Z,-0.78
2023-02-05T07:46:58.920Z,-0.75
2023-02-05T07:47:59.185Z,-0.72
2023-02-05T07:48:59.449Z,-0.69
2023-02-05T07:49:59.688Z,-0.65
2023-02-05T07:50:59.960Z,-0.61
2023-02-05T07:52:00.220Z,-0.58
2023-02-05T07:53:00.472Z,-0.57
2023-02-05T07:54:00.715Z,-0.57
2023-02-05T07:55:00.959Z,-0.55
2023-02-05T07:56:01.232Z,-0.54
2023-02-05T07:57:01.465Z,-0.55
2023-02-05T07:58:01.709Z,-0.54
2023-02-05T07:59:01.959Z,-0.55
2023-02-05T08:00:02.217Z,-0.52
2023-02-05T08:01:02.590Z,-0.51
2023-02-05T08:02:02.761Z,-0.51
2023-02-05T08:03:03.018Z,-0.49
2023-02-05T08:04:03.316Z,-0.51
2023-02-05T08:05:03.577Z,-0.47
2023-02-05T08:06:03.848Z,-0.46
2023-02-05T08:07:04.104Z,-0.47
2023-02-05T08:08:04.375Z,-0.46
2023-02-05T08:09:04.646Z,-0.44
2023-02-05T08:10:04.902Z,-0.42
2023-02-05T08:11:05.160Z,-0.43
2023-02-05T08:12:06.211Z,-0.40
2023-02-05T08:13:05.648Z,-0.40
2023-02-05T08:14:05.895Z,-0.40
2023-02-05T08:15:06.156Z,-0.40
2023-02-05T08:16:06.445Z,-0.37
2023-02-05T08:17:06.713Z,-0.37
2023-02-05T08:18:06.970Z,-0.40
2023-02-05T08:19:07.222Z,-0.37
2023-02-05T08:20:07.488Z,-0.33
2023-02-05T08:21:07.759Z,-0.29
2023-02-05T08:22:08.041Z,-0.28
2023-02-05T08:23:08.280Z,-0.25
2023-02-05T08:24:08.547Z,-0.23
2023-02-05T08:25:08.800Z,-0.21
2023-02-05T08:26:09.108Z,-0.19
2023-02-05T08:27:09.367Z,-0.21
2023-02-05T08:28:09.694Z,-0.15
2023-02-05T08:29:09.945Z,-0.11
2023-02-05T08:30:10.199Z,-0.11
2023-02-05T08:31:10.479Z,-0.11
2023-02-05T08:32:10.735Z,-0.11
2023-02-05T08:33:10.991Z,-0.11
2023-02-05T08:34:11.231Z,-0.10
2023-02-05T08:35:11.493Z,-0.10
2023-02-05T08:36:11.795Z,-0.14
2023-02-05T08:37:12.023Z,-0.15
2023-02-05T08:38:12.280Z,-0.15
2023-02-05T08:39:12.521Z,-0.10
2023-02-05T08:40:12.766Z,-0.07
2023-02-05T08:41:13.019Z,-0.04
2023-02-05T08:42:13.281Z,-0.01
2023-02-05T08:43:13.558Z,0.02
2023-02-05T08:44:13.796Z,0.04
2023-02-05T08:45:14.038Z,0.11
2023-02-05T08:46:14.313Z,0.14
2023-02-05T08:47:14.540Z,0.17
2023-02-05T08:48:14.787Z,0.21
2023-02-05T08:49:15.025Z,0.24
2023-02-05T08:50:15.266Z,0.29
2023-02-05T08:51:15.529Z,0.33
2023-02-05T08:52:15.772Z,0.39
2023-02-05T08:53:16.025Z,0.41
2023-02-05T08:54:16.263Z,0.41
2023-02-05T08:55:16.516Z,0.46
2023-02-05T08:56:17.805Z,0.47
2023-02-05T08:57:17.037Z,0.47
2023-02-05T08:58:17.276Z,0.49
2023-02-05T08:59:17.519Z,0.49
2023-02-05T09:00:17.755Z,0.51
2023-02-05T09:01:18.197Z,0.51
2023-02-05T09:02:18.253Z,0.57
2023-02-05T09:03:18.493Z,0.53
2023-02-05T09:04:18.759Z,0.57
2023-02-05T09:05:19.023Z,0.57
2023-02-05T09:06:19.451Z,0.60
2023-02-05T09:07:19.514Z,0.62
2023-02-05T09:08:19.785Z,0.66
2023-02-05T09:09:20.042Z,0.68
2023-02-05T09:10:20.302Z,0.70
2023-02-05T09:11:20.533Z,0.70
2023-02-05T09:12:20.799Z,0.73
2023-02-05T09:13:21.046Z,0.75
2023-02-05T09:14:21.297Z,0.72
2023-02-05T09:15:21.530Z,0.73
2023-02-05T09:16:21.902Z,0.76
2023-02-05T09:17:22.168Z,0.75
2023-02-05T09:18:22.420Z,0.76
2023-02-05T09:19:22.665Z,0.83
2023-02-05T09:20:22.900Z,0.84
2023-02-05T09:21:23.167Z,0.86
2023-02-05T09:22:23.420Z,0.87
2023-02-05T09:23:23.662Z,0.90
2023-02-05T09:24:23.890Z,0.91
2023-02-05T09:25:24.109Z,0.93
2023-02-05T09:26:24.387Z,0.90
2023-02-05T09:27:24.610Z,0.93
2023-02-05T09:28:24.871Z,0.93
2023-02-05T09:29:25.117Z,0.90
2023-02-05T09:30:25.386Z,0.90
2023-02-05T09:31:25.729Z,0.93
2023-02-05T09:32:25.993Z,0.93
2023-02-05T09:33:26.232Z,0.94
2023-02-05T09:34:26.853Z,0.97
2023-02-05T09:35:26.757Z,0.98
2023-02-05T09:36:27.022Z,1.00
2023-02-05T09:37:27.260Z,1.00
2023-02-05T09:38:27.509Z,1.00
2023-02-05T09:40:11.827Z,0.98
2023-02-05T09:40:29.127Z,0.98
2023-02-05T09:41:28.323Z,1.00
2023-02-05T09:42:28.617Z,0.98
2023-02-05T09:43:28.869Z,0.97
2023-02-05T09:44:29.105Z,0.98
2023-02-05T09:45:29.332Z,1.04
2023-02-05T09:46:29.772Z,1.06
2023-02-05T09:47:30.005Z,1.06
2023-02-05T09:48:30.254Z,1.08
2023-02-05T09:49:30.493Z,1.09
2023-02-05T09:50:30.734Z,1.11
2023-02-05T09:51:31.003Z,1.14
2023-02-05T09:52:31.252Z,1.16
2023-02-05T09:53:31.496Z,1.20
2023-02-05T09:54:31.754Z,1.24
2023-02-05T09:55:32.365Z,1.26
2023-02-05T09:56:32.314Z,1.27
2023-02-05T09:57:32.575Z,1.27
2023-02-05T09:58:32.813Z,1.33
2023-02-05T09:59:33.051Z,1.33
2023-02-05T10:00:33.320Z,1.30
2023-02-05T10:01:33.609Z,1.34
2023-02-05T10:02:33.815Z,1.37
2023-02-05T10:03:34.074Z,1.42
2023-02-05T10:04:34.417Z,1.45
2023-02-05T10:05:35.694Z,1.45
2023-02-05T10:06:34.995Z,1.48
2023-02-05T10:07:35.244Z,1.52
2023-02-05T10:08:36.362Z,1.52
2023-02-05T10:09:35.819Z,1.54
2023-02-05T10:10:36.046Z,1.55
2023-02-05T10:11:36.304Z,1.54
2023-02-05T10:12:36.553Z,1.58
2023-02-05T10:13:36.803Z,1.59
2023-02-05T10:14:37.056Z,1.59
2023-02-05T10:15:37.573Z,1.59
2023-02-05T10:16:37.564Z,1.60
2023-02-05T10:17:37.804Z,1.62
2023-02-05T10:18:38.063Z,1.63
2023-02-05T10:19:38.313Z,1.63
2023-02-05T10:20:38.567Z,1.66
2023-02-05T10:21:38.821Z,1.69
2023-02-05T10:22:39.065Z,1.68
2023-02-05T10:23:39.304Z,1.73
2023-02-05T10:24:39.555Z,1.72
2023-02-05T10:25:39.785Z,1.70
2023-02-05T10:26:40.046Z,1.70
2023-02-05T10:27:40.281Z,1.73
2023-02-05T10:28:40.526Z,1.76
2023-02-05T10:29:40.785Z,1.73
2023-02-05T10:30:41.125Z,1.77
2023-02-05T10:31:41.486Z,1.76
2023-02-05T10:32:41.690Z,1.73
2023-02-05T10:33:41.954Z,1.73
2023-02-05T10:34:42.185Z,1.73
2023-02-05T10:35:42.414Z,1.77
2023-02-05T10:36:42.699Z,1.77
2023-02-05T10:37:42.941Z,1.77
2023-02-05T10:38:43.203Z,1.80
2023-02-05T10:39:43.471Z,1.83
2023-02-05T10:40:43.721Z,1.86
2023-02-05T10:41:43.965Z,1.87
2023-02-05T10:42:44.211Z,1.90
2023-02-05T10:43:44.468Z,1.91
2023-02-05T10:44:44.719Z,1.91
2023-02-05T10:45:44.969Z,1.98
2023-02-05T10:46:45.227Z,2.00
2023-02-05T10:47:45.476Z,2.02
2023-02-05T10:48:45.720Z,1.99
2023-02-05T10:49:45.961Z,2.00
2023-02-05T10:50:46.263Z,2.05
2023-02-05T10:51:46.520Z,2.05
2023-02-05T10:52:46.772Z,2.06
2023-02-05T10:53:47.029Z,2.07
2023-02-05T10:54:47.275Z,2.07
2023-02-05T10:55:47.509Z,2.10
2023-02-05T10:56:47.791Z,2.09
2023-02-05T10:57:48.066Z,2.09
2023-02-05T10:58:48.316Z,2.09
2023-02-05T10:59:48.835Z,2.06
2023-02-05T11:00:48.782Z,2.09
2023-02-05T11:01:49.074Z,2.10
2023-02-05T11:02:49.310Z,2.10
2023-02-05T11:03:49.562Z,2.10
2023-02-05T11:04:49.822Z,2.10
2023-02-05T11:05:50.061Z,2.12
2023-02-05T11:06:50.369Z,2.14
2023-02-05T11:07:50.653Z,2.12
2023-02-05T11:08:50.921Z,2.14
2023-02-05T11:09:51.185Z,2.14
2023-02-05T11:10:51.467Z,2.16
2023-02-05T11:11:51.770Z,2.18
2023-02-05T11:12:52.012Z,2.17
2023-02-05T11:13:52.290Z,2.20
2023-02-05T11:14:52.538Z,2.21
2023-02-05T11:15:52.837Z,2.21
2023-02-05T11:16:53.095Z,2.21
2023-02-05T11:17:53.352Z,2.23
2023-02-05T11:18:53.635Z,2.27
2023-02-05T11:19:53.905Z,2.27
2023-02-05T11:20:54.135Z,2.30
2023-02-05T11:21:54.432Z,2.34
2023-02-05T11:22:54.684Z,2.35
2023-02-05T11:23:54.933Z,2.36
2023-02-05T11:24:55.181Z,2.36
2023-02-05T11:25:55.446Z,2.36
2023-02-05T11:26:55.736Z,2.35
2023-02-05T11:27:56.058Z,2.34
2023-02-05T11:28:56.279Z,2.34
2023-02-05T11:29:56.525Z,2.34
2023-02-05T11:30:57.052Z,2.31
2023-02-05T11:31:57.212Z,2.35
2023-02-05T11:32:57.316Z,2.36
2023-02-05T11:33:57.561Z,2.41
2023-02-05T11:34:57.815Z,2.45
2023-02-05T11:35:58.043Z,2.46
2023-02-05T11:36:58.296Z,2.48
2023-02-05T11:37:58.533Z,2.45
2023-02-05T11:38:58.778Z,2.45
2023-02-05T11:39:59.054Z,2.45
2023-02-05T11:40:59.302Z,2.48
2023-02-05T11:41:59.581Z,2.48
2023-02-05T11:42:59.806Z,2.49
2023-02-05T11:44:00.048Z,2.45
2023-02-05T11:45:00.286Z,2.42
2023-02-05T11:46:00.539Z,2.42
2023-02-05T11:47:00.887Z,2.39
2023-02-05T11:48:01.002Z,2.39
2023-02-05T11:49:01.326Z,2.41
2023-02-05T11:50:01.582Z,2.43
2023-02-05T11:51:01.827Z,2.46
2023-02-05T11:52:02.067Z,2.43
2023-02-05T11:53:02.314Z,2.42
2023-02-05T11:54:02.586Z,2.43
2023-02-05T11:55:02.808Z,2.43
2023-02-05T11:56:03.059Z,2.45
2023-02-05T11:57:03.314Z,2.45
2023-02-05T11:58:03.611Z,2.46
2023-02-05T11:59:03.854Z,2.46
2023-02-05T12:00:04.102Z,2.48
2023-02-05T12:01:04.331Z,2.46
2023-02-05T12:02:04.618Z,2.45
2023-02-05T12:03:04.898Z,2.48
2023-02-05T12:04:05.125Z,2.49
2023-02-05T12:05:05.388Z,2.49
2023-02-05T12:06:05.634Z,2.52
2023-02-05T12:07:05.893Z,2.46
2023-02-05T12:08:08.225Z,2.45
2023-02-05T12:09:06.474Z,2.45
2023-02-05T12:10:06.732Z,2.45
2023-02-05T12:11:06.972Z,2.45
2023-02-05T12:12:07.248Z,2.46
2023-02-05T12:13:07.514Z,2.48
2023-02-05T12:14:07.767Z,2.49
2023-02-05T12:15:08.018Z,2.49
2023-02-05T12:16:08.311Z,2.46
2023-02-05T12:17:08.541Z,2.43
2023-02-05T12:18:08.788Z,2.46
2023-02-05T12:19:09.006Z,2.46
2023-02-05T12:20:09.255Z,2.49
2023-02-05T12:21:09.485Z,2.49
2023-02-05T12:22:09.744Z,2.49
2023-02-05T12:23:09.979Z,2.52
2023-02-05T12:24:10.247Z,2.52
2023-02-05T12:25:10.514Z,2.49
2023-02-05T12:26:10.765Z,2.46
2023-02-05T12:27:11.013Z,2.45
2023-02-05T12:28:11.283Z,2.42
2023-02-05T12:29:11.533Z,2.42
2023-02-05T12:30:11.778Z,2.38
2023-02-05T12:31:12.021Z,2.39
2023-02-05T12:32:12.288Z,2.39
2023-02-05T12:33:12.522Z,2.39
2023-02-05T12:34:12.774Z,2.39
2023-02-05T12:35:13.035Z,2.39
2023-02-05T12:36:13.282Z,2.41
2023-02-05T12:37:13.538Z,2.41
2023-02-05T12:38:21.217Z,2.41
2023-02-05T12:39:15.104Z,2.39
2023-02-05T12:40:14.512Z,2.36
2023-02-05T12:41:14.741Z,2.35
2023-02-05T12:42:14.994Z,2.35
2023-02-05T12:43:15.257Z,2.35
2023-02-05T12:44:15.504Z,2.38
2023-02-05T12:45:15.729Z,2.38
2023-02-05T12:46:16.025Z,2.41
2023-02-05T12:47:16.246Z,2.38
2023-02-05T12:48:16.494Z,2.38
2023-02-05T12:49:16.724Z,2.41
2023-02-05T12:50:16.975Z,2.42
2023-02-05T12:51:17.223Z,2.42
2023-02-05T12:52:17.489Z,2.42
2023-02-05T12:53:17.724Z,2.42
2023-02-05T12:54:17.963Z,2.43
2023-02-05T12:55:18.209Z,2.45
2023-02-05T12:56:18.435Z,2.48
2023-02-05T12:57:18.700Z,2.46
2023-02-05T12:58:18.943Z,2.52
2023-02-05T12:59:19.196Z,2.53
2023-02-05T13:00:19.435Z,2.53
2023-02-05T13:01:19.733Z,2.53
2023-02-05T13:02:20.010Z,2.54
2023-02-05T13:03:20.269Z,2.56
2023-02-05T13:04:20.586Z,2.56
2023-02-05T13:05:20.737Z,2.56